sensor_id;sensor_type;location;lat;lon;timestamp;pressure;altitude;pressure_sealevel;temperature;humidity
76730;BME280;65653;53.106;18.046;2023-10-09T00:01:04;101626.40;;;2.74;74.95
76730;BME280;65653;53.106;18.046;2023-10-09T00:03:47;101619.73;;;2.73;75.23
76730;BME280;65653;53.106;18.046;2023-10-09T00:06:21;101615.34;;;2.73;74.94
76730;BME280;65653;53.106;18.046;2023-10-09T00:08:57;101613.14;;;2.73;75.24
76730;BME280;65653;53.106;18.046;2023-10-09T00:11:24;101607.20;;;2.74;74.95
76730;BME280;65653;53.106;18.046;2023-10-09T00:13:56;101593.56;;;2.74;75.16
76730;BME280;65653;53.106;18.046;2023-10-09T00:16:27;101591.50;;;2.70;75.32
76730;BME280;65653;53.106;18.046;2023-10-09T00:19:04;101590.73;;;2.67;75.07
76730;BME280;65653;53.106;18.046;2023-10-09T00:21:44;101598.08;;;2.62;75.28
76730;BME280;65653;53.106;18.046;2023-10-09T00:24:12;101597.00;;;2.60;76.12
76730;BME280;65653;53.106;18.046;2023-10-09T00:26:51;101583.73;;;2.59;75.61
76730;BME280;65653;53.106;18.046;2023-10-09T00:29:22;101572.05;;;2.59;75.28
76730;BME280;65653;53.106;18.046;2023-10-09T00:31:52;101559.44;;;2.60;75.28
76730;BME280;65653;53.106;18.046;2023-10-09T00:34:32;101558.37;;;2.62;75.37
76730;BME280;65653;53.106;18.046;2023-10-09T00:37:09;101552.71;;;2.64;75.31
76730;BME280;65653;53.106;18.046;2023-10-09T00:39:43;101551.96;;;2.64;75.63
76730;BME280;65653;53.106;18.046;2023-10-09T00:42:11;101570.33;;;2.65;75.79
76730;BME280;65653;53.106;18.046;2023-10-09T00:44:49;101576.95;;;2.64;75.92
76730;BME280;65653;53.106;18.046;2023-10-09T00:47:15;101566.36;;;2.64;76.12
76730;BME280;65653;53.106;18.046;2023-10-09T00:49:50;101566.09;;;2.65;75.97
76730;BME280;65653;53.106;18.046;2023-10-09T00:52:24;101573.75;;;2.67;76.40
76730;BME280;65653;53.106;18.046;2023-10-09T00:55:02;101576.39;;;2.70;75.98
76730;BME280;65653;53.106;18.046;2023-10-09T00:57:50;101574.79;;;2.72;76.03
76730;BME280;65653;53.106;18.046;2023-10-09T01:00:26;101561.23;;;2.71;76.06
76730;BME280;65653;53.106;18.046;2023-10-09T01:03:00;101555.95;;;2.68;76.40
76730;BME280;65653;53.106;18.046;2023-10-09T01:05:39;101554.95;;;2.67;76.22
76730;BME280;65653;53.106;18.046;2023-10-09T01:08:19;101551.33;;;2.67;76.63
76730;BME280;65653;53.106;18.046;2023-10-09T01:10:56;101543.81;;;2.68;76.67
76730;BME280;65653;53.106;18.046;2023-10-09T01:13:24;101546.15;;;2.70;76.42
76730;BME280;65653;53.106;18.046;2023-10-09T01:16:06;101542.96;;;2.71;76.40
76730;BME280;65653;53.106;18.046;2023-10-09T01:18:33;101540.30;;;2.72;76.86
76730;BME280;65653;53.106;18.046;2023-10-09T01:21:04;101539.32;;;2.71;76.79
76730;BME280;65653;53.106;18.046;2023-10-09T01:23:31;101535.09;;;2.69;76.81
76730;BME280;65653;53.106;18.046;2023-10-09T01:25:58;101532.00;;;2.67;76.72
76730;BME280;65653;53.106;18.046;2023-10-09T01:28:24;101531.21;;;2.66;76.72
76730;BME280;65653;53.106;18.046;2023-10-09T01:30:52;101534.33;;;2.66;76.55
76730;BME280;65653;53.106;18.046;2023-10-09T01:33:19;101539.04;;;2.66;76.71
76730;BME280;65653;53.106;18.046;2023-10-09T01:35:53;101546.38;;;2.68;76.69
76730;BME280;65653;53.106;18.046;2023-10-09T01:38:25;101550.63;;;2.71;76.57
76730;BME280;65653;53.106;18.046;2023-10-09T01:41:11;101554.41;;;2.73;76.90
76730;BME280;65653;53.106;18.046;2023-10-09T01:43:42;101550.34;;;2.72;76.67
76730;BME280;65653;53.106;18.046;2023-10-09T01:46:12;101551.48;;;2.70;76.65
76730;BME280;65653;53.106;18.046;2023-10-09T01:48:42;101551.14;;;2.65;76.98
76730;BME280;65653;53.106;18.046;2023-10-09T01:51:14;101548.19;;;2.64;77.33
76730;BME280;65653;53.106;18.046;2023-10-09T01:53:44;101543.84;;;2.65;77.38
76730;BME280;65653;53.106;18.046;2023-10-09T01:56:13;101544.29;;;2.66;77.17
76730;BME280;65653;53.106;18.046;2023-10-09T01:58:44;101540.52;;;2.66;77.24
76730;BME280;65653;53.106;18.046;2023-10-09T02:01:16;101537.96;;;2.64;77.38
76730;BME280;65653;53.106;18.046;2023-10-09T02:03:43;101538.71;;;2.63;77.27
76730;BME280;65653;53.106;18.046;2023-10-09T02:06:09;101537.14;;;2.65;77.34
76730;BME280;65653;53.106;18.046;2023-10-09T02:09:05;101536.86;;;2.70;77.26
76730;BME280;65653;53.106;18.046;2023-10-09T02:11:33;101528.29;;;2.72;77.22
76730;BME280;65653;53.106;18.046;2023-10-09T02:14:03;101527.31;;;2.73;77.05
76730;BME280;65653;53.106;18.046;2023-10-09T02:16:38;101531.91;;;2.72;77.06
76730;BME280;65653;53.106;18.046;2023-10-09T02:19:08;101531.67;;;2.71;77.14
76730;BME280;65653;53.106;18.046;2023-10-09T02:21:54;101529.02;;;2.70;77.50
76730;BME280;65653;53.106;18.046;2023-10-09T02:24:26;101520.34;;;2.71;77.06
76730;BME280;65653;53.106;18.046;2023-10-09T02:27:11;101515.65;;;2.72;77.38
76730;BME280;65653;53.106;18.046;2023-10-09T02:29:38;101513.52;;;2.74;77.51
76730;BME280;65653;53.106;18.046;2023-10-09T02:32:04;101504.00;;;2.74;77.39
76730;BME280;65653;53.106;18.046;2023-10-09T02:34:40;101502.02;;;2.74;77.40
76730;BME280;65653;53.106;18.046;2023-10-09T02:37:08;101500.79;;;2.76;77.69
76730;BME280;65653;53.106;18.046;2023-10-09T02:39:39;101494.63;;;2.77;77.39
76730;BME280;65653;53.106;18.046;2023-10-09T02:42:14;101487.05;;;2.80;77.20
76730;BME280;65653;53.106;18.046;2023-10-09T02:44:41;101473.96;;;2.84;77.27
76730;BME280;65653;53.106;18.046;2023-10-09T02:47:17;101467.06;;;2.92;77.30
76730;BME280;65653;53.106;18.046;2023-10-09T02:49:56;101459.38;;;2.96;76.95
76730;BME280;65653;53.106;18.046;2023-10-09T02:52:46;101448.79;;;2.98;76.88
76730;BME280;65653;53.106;18.046;2023-10-09T02:55:13;101450.45;;;3.00;76.99
76730;BME280;65653;53.106;18.046;2023-10-09T02:57:50;101446.94;;;3.01;76.94
76730;BME280;65653;53.106;18.046;2023-10-09T03:00:22;101444.10;;;3.02;76.89
76730;BME280;65653;53.106;18.046;2023-10-09T03:02:55;101441.02;;;3.01;77.01
76730;BME280;65653;53.106;18.046;2023-10-09T03:05:25;101442.50;;;3.03;76.69
76730;BME280;65653;53.106;18.046;2023-10-09T03:07:54;101440.76;;;3.06;76.65
76730;BME280;65653;53.106;18.046;2023-10-09T03:10:24;101435.92;;;3.09;76.62
76730;BME280;65653;53.106;18.046;2023-10-09T03:12:52;101446.13;;;3.11;76.76
76730;BME280;65653;53.106;18.046;2023-10-09T03:15:19;101445.88;;;3.12;76.61
76730;BME280;65653;53.106;18.046;2023-10-09T03:17:49;101435.90;;;3.13;76.39
76730;BME280;65653;53.106;18.046;2023-10-09T03:20:16;101429.68;;;3.13;76.68
76730;BME280;65653;53.106;18.046;2023-10-09T03:22:46;101428.09;;;3.13;76.81
76730;BME280;65653;53.106;18.046;2023-10-09T03:25:14;101415.80;;;3.14;76.58
76730;BME280;65653;53.106;18.046;2023-10-09T03:27:43;101400.59;;;3.14;76.51
76730;BME280;65653;53.106;18.046;2023-10-09T03:30:17;101401.80;;;3.17;76.54
76730;BME280;65653;53.106;18.046;2023-10-09T03:32:50;101405.41;;;3.19;76.50
76730;BME280;65653;53.106;18.046;2023-10-09T03:35:18;101400.40;;;3.22;76.53
76730;BME280;65653;53.106;18.046;2023-10-09T03:37:55;101399.99;;;3.26;76.26
76730;BME280;65653;53.106;18.046;2023-10-09T03:40:45;101390.41;;;3.29;76.11
76730;BME280;65653;53.106;18.046;2023-10-09T03:43:15;101385.44;;;3.32;76.14
76730;BME280;65653;53.106;18.046;2023-10-09T03:45:42;101386.30;;;3.32;76.21
76730;BME280;65653;53.106;18.046;2023-10-09T03:48:20;101380.08;;;3.33;76.44
76730;BME280;65653;53.106;18.046;2023-10-09T03:50:59;101376.61;;;3.32;76.21
76730;BME280;65653;53.106;18.046;2023-10-09T03:53:39;101369.52;;;3.34;76.14
76730;BME280;65653;53.106;18.046;2023-10-09T03:56:06;101361.41;;;3.35;76.28
76730;BME280;65653;53.106;18.046;2023-10-09T03:58:40;101362.10;;;3.35;76.48
76730;BME280;65653;53.106;18.046;2023-10-09T04:01:10;101362.06;;;3.38;76.11
76730;BME280;65653;53.106;18.046;2023-10-09T04:03:50;101371.45;;;3.43;75.97
76730;BME280;65653;53.106;18.046;2023-10-09T04:06:28;101365.36;;;3.47;75.85
76730;BME280;65653;53.106;18.046;2023-10-09T04:09:04;101354.12;;;3.48;75.91
76730;BME280;65653;53.106;18.046;2023-10-09T04:11:53;101350.89;;;3.50;75.81
76730;BME280;65653;53.106;18.046;2023-10-09T04:14:39;101342.82;;;3.50;75.93
76730;BME280;65653;53.106;18.046;2023-10-09T04:17:35;101340.30;;;3.48;76.66
76730;BME280;65653;53.106;18.046;2023-10-09T04:20:04;101343.16;;;3.46;76.44
76730;BME280;65653;53.106;18.046;2023-10-09T04:22:46;101338.95;;;3.48;76.29
76730;BME280;65653;53.106;18.046;2023-10-09T04:25:32;101338.92;;;3.51;76.22
76730;BME280;65653;53.106;18.046;2023-10-09T04:28:16;101336.38;;;3.54;76.09
76730;BME280;65653;53.106;18.046;2023-10-09T04:30:46;101343.25;;;3.57;75.81
76730;BME280;65653;53.106;18.046;2023-10-09T04:33:13;101330.98;;;3.59;75.57
76730;BME280;65653;53.106;18.046;2023-10-09T04:36:02;101327.38;;;3.60;75.44
76730;BME280;65653;53.106;18.046;2023-10-09T04:38:52;101333.66;;;3.60;75.39
76730;BME280;65653;53.106;18.046;2023-10-09T04:41:22;101329.70;;;3.59;75.67
76730;BME280;65653;53.106;18.046;2023-10-09T04:44:10;101323.52;;;3.59;75.57
76730;BME280;65653;53.106;18.046;2023-10-09T04:46:46;101318.80;;;3.61;75.55
76730;BME280;65653;53.106;18.046;2023-10-09T04:49:33;101315.91;;;3.62;75.53
76730;BME280;65653;53.106;18.046;2023-10-09T04:52:31;101311.64;;;3.65;75.38
76730;BME280;65653;53.106;18.046;2023-10-09T04:54:58;101311.59;;;3.67;75.51
76730;BME280;65653;53.106;18.046;2023-10-09T04:57:39;101307.95;;;3.71;75.49
76730;BME280;65653;53.106;18.046;2023-10-09T05:00:18;101306.46;;;3.75;75.35
76730;BME280;65653;53.106;18.046;2023-10-09T05:02:56;101307.94;;;3.79;75.26
76730;BME280;65653;53.106;18.046;2023-10-09T05:05:26;101304.93;;;3.82;74.97
76730;BME280;65653;53.106;18.046;2023-10-09T05:08:16;101302.00;;;3.85;75.07
76730;BME280;65653;53.106;18.046;2023-10-09T05:11:02;101298.62;;;3.88;75.03
76730;BME280;65653;53.106;18.046;2023-10-09T05:13:36;101294.23;;;3.92;74.89
76730;BME280;65653;53.106;18.046;2023-10-09T05:16:13;101294.30;;;3.97;74.71
76730;BME280;65653;53.106;18.046;2023-10-09T05:18:45;101289.67;;;4.01;74.71
76730;BME280;65653;53.106;18.046;2023-10-09T05:21:28;101285.44;;;4.07;74.71
76730;BME280;65653;53.106;18.046;2023-10-09T05:23:59;101285.44;;;4.10;74.94
76730;BME280;65653;53.106;18.046;2023-10-09T05:26:50;101284.64;;;4.11;75.20
76730;BME280;65653;53.106;18.046;2023-10-09T05:29:21;101286.92;;;4.12;75.47
76730;BME280;65653;53.106;18.046;2023-10-09T05:32:00;101278.65;;;4.12;75.54
76730;BME280;65653;53.106;18.046;2023-10-09T05:34:54;101276.03;;;4.15;75.44
76730;BME280;65653;53.106;18.046;2023-10-09T05:37:31;101278.41;;;4.18;75.53
76730;BME280;65653;53.106;18.046;2023-10-09T05:40:09;101283.73;;;4.24;75.41
76730;BME280;65653;53.106;18.046;2023-10-09T05:42:42;101286.54;;;4.29;75.52
76730;BME280;65653;53.106;18.046;2023-10-09T05:45:11;101284.35;;;4.34;75.69
76730;BME280;65653;53.106;18.046;2023-10-09T05:47:48;101284.95;;;4.41;75.38
76730;BME280;65653;53.106;18.046;2023-10-09T05:50:24;101287.96;;;4.46;75.77
76730;BME280;65653;53.106;18.046;2023-10-09T05:52:52;101284.84;;;4.48;75.54
76730;BME280;65653;53.106;18.046;2023-10-09T05:57:45;101277.21;;;4.58;75.65
76730;BME280;65653;53.106;18.046;2023-10-09T06:00:30;101268.01;;;4.66;74.90
76730;BME280;65653;53.106;18.046;2023-10-09T06:03:15;101262.53;;;4.69;75.04
76730;BME280;65653;53.106;18.046;2023-10-09T06:05:49;101263.21;;;4.72;74.87
76730;BME280;65653;53.106;18.046;2023-10-09T06:08:26;101254.47;;;4.78;74.80
76730;BME280;65653;53.106;18.046;2023-10-09T06:11:25;101252.91;;;4.83;74.59
76730;BME280;65653;53.106;18.046;2023-10-09T06:14:01;101263.56;;;4.88;74.76
76730;BME280;65653;53.106;18.046;2023-10-09T06:16:40;101264.44;;;4.95;74.81
76730;BME280;65653;53.106;18.046;2023-10-09T06:19:09;101268.96;;;5.05;74.72
76730;BME280;65653;53.106;18.046;2023-10-09T06:21:38;101272.98;;;5.14;74.33
76730;BME280;65653;53.106;18.046;2023-10-09T06:24:07;101274.16;;;5.16;74.09
76730;BME280;65653;53.106;18.046;2023-10-09T06:26:45;101281.89;;;5.18;74.14
76730;BME280;65653;53.106;18.046;2023-10-09T06:29:40;101279.66;;;5.25;74.61
76730;BME280;65653;53.106;18.046;2023-10-09T06:32:17;101279.07;;;5.32;74.00
76730;BME280;65653;53.106;18.046;2023-10-09T06:34:49;101277.27;;;5.34;73.57
76730;BME280;65653;53.106;18.046;2023-10-09T06:37:19;101276.86;;;5.31;73.30
76730;BME280;65653;53.106;18.046;2023-10-09T06:39:52;101276.43;;;5.40;74.02
76730;BME280;65653;53.106;18.046;2023-10-09T06:42:26;101268.45;;;5.45;73.75
76730;BME280;65653;53.106;18.046;2023-10-09T06:45:13;101265.48;;;5.52;73.66
76730;BME280;65653;53.106;18.046;2023-10-09T06:47:46;101266.27;;;5.57;73.55
76730;BME280;65653;53.106;18.046;2023-10-09T06:50:22;101267.23;;;5.63;73.48
76730;BME280;65653;53.106;18.046;2023-10-09T06:52:53;101268.14;;;5.66;73.14
76730;BME280;65653;53.106;18.046;2023-10-09T06:55:38;101268.80;;;5.69;73.29
76730;BME280;65653;53.106;18.046;2023-10-09T07:00:49;101280.27;;;5.66;73.02
76730;BME280;65653;53.106;18.046;2023-10-09T07:03:26;101285.90;;;5.67;73.14
76730;BME280;65653;53.106;18.046;2023-10-09T07:06:09;101290.39;;;5.69;73.43
76730;BME280;65653;53.106;18.046;2023-10-09T07:08:52;101290.16;;;5.71;73.10
76730;BME280;65653;53.106;18.046;2023-10-09T07:14:22;101277.81;;;5.78;72.96
76730;BME280;65653;53.106;18.046;2023-10-09T07:17:02;101265.89;;;5.88;72.87
76730;BME280;65653;53.106;18.046;2023-10-09T07:19:43;101272.56;;;6.03;72.76
76730;BME280;65653;53.106;18.046;2023-10-09T07:22:09;101268.99;;;6.24;72.74
76730;BME280;65653;53.106;18.046;2023-10-09T07:24:52;101272.52;;;6.49;72.14
76730;BME280;65653;53.106;18.046;2023-10-09T07:27:40;101267.48;;;6.76;70.79
76730;BME280;65653;53.106;18.046;2023-10-09T07:30:26;101268.20;;;6.90;69.39
76730;BME280;65653;53.106;18.046;2023-10-09T07:33:01;101270.60;;;6.98;69.04
76730;BME280;65653;53.106;18.046;2023-10-09T07:35:35;101276.81;;;7.00;68.52
76730;BME280;65653;53.106;18.046;2023-10-09T07:40:50;101287.52;;;7.01;68.17
76730;BME280;65653;53.106;18.046;2023-10-09T07:43:29;101282.55;;;7.04;68.50
76730;BME280;65653;53.106;18.046;2023-10-09T07:46:06;101276.54;;;7.09;68.62
76730;BME280;65653;53.106;18.046;2023-10-09T07:48:52;101274.80;;;7.19;68.56
76730;BME280;65653;53.106;18.046;2023-10-09T07:51:20;101278.61;;;7.28;68.42
76730;BME280;65653;53.106;18.046;2023-10-09T07:53:50;101283.38;;;7.35;68.05
76730;BME280;65653;53.106;18.046;2023-10-09T07:56:26;101292.55;;;7.41;67.73
76730;BME280;65653;53.106;18.046;2023-10-09T07:58:56;101295.37;;;7.42;67.00
76730;BME280;65653;53.106;18.046;2023-10-09T08:01:26;101291.40;;;7.43;67.24
76730;BME280;65653;53.106;18.046;2023-10-09T08:04:02;101291.21;;;7.51;67.04
76730;BME280;65653;53.106;18.046;2023-10-09T08:06:38;101289.05;;;7.58;66.12
76730;BME280;65653;53.106;18.046;2023-10-09T08:09:13;101287.11;;;7.62;66.35
76730;BME280;65653;53.106;18.046;2023-10-09T08:11:43;101286.46;;;7.70;66.07
76730;BME280;65653;53.106;18.046;2023-10-09T08:14:14;101286.10;;;7.80;66.11
76730;BME280;65653;53.106;18.046;2023-10-09T08:16:59;101289.89;;;7.95;65.67
76730;BME280;65653;53.106;18.046;2023-10-09T08:19:42;101283.57;;;8.04;65.04
76730;BME280;65653;53.106;18.046;2023-10-09T08:22:25;101269.41;;;8.10;65.07
76730;BME280;65653;53.106;18.046;2023-10-09T08:24:53;101265.25;;;8.20;65.06
76730;BME280;65653;53.106;18.046;2023-10-09T08:27:26;101267.55;;;8.32;65.05
76730;BME280;65653;53.106;18.046;2023-10-09T08:30:04;101260.43;;;8.38;64.68
76730;BME280;65653;53.106;18.046;2023-10-09T08:32:50;101252.03;;;8.42;64.24
76730;BME280;65653;53.106;18.046;2023-10-09T08:35:55;101247.69;;;8.51;64.53
76730;BME280;65653;53.106;18.046;2023-10-09T08:38:28;101242.94;;;8.64;64.48
76730;BME280;65653;53.106;18.046;2023-10-09T08:41:10;101242.12;;;8.67;63.94
76730;BME280;65653;53.106;18.046;2023-10-09T08:43:48;101241.74;;;8.69;63.78
76730;BME280;65653;53.106;18.046;2023-10-09T08:46:26;101237.55;;;8.71;63.89
76730;BME280;65653;53.106;18.046;2023-10-09T08:48:57;101237.08;;;8.82;63.70
76730;BME280;65653;53.106;18.046;2023-10-09T08:51:26;101229.50;;;8.95;63.91
76730;BME280;65653;53.106;18.046;2023-10-09T08:53:54;101222.21;;;9.12;63.99
76730;BME280;65653;53.106;18.046;2023-10-09T08:56:22;101228.48;;;9.28;62.86
76730;BME280;65653;53.106;18.046;2023-10-09T08:58:54;101228.10;;;9.34;62.59
76730;BME280;65653;53.106;18.046;2023-10-09T09:01:21;101226.17;;;9.41;62.70
76730;BME280;65653;53.106;18.046;2023-10-09T09:03:49;101225.15;;;9.55;62.08
76730;BME280;65653;53.106;18.046;2023-10-09T09:06:18;101227.79;;;9.58;60.36
76730;BME280;65653;53.106;18.046;2023-10-09T09:08:46;101224.04;;;9.52;61.52
76730;BME280;65653;53.106;18.046;2023-10-09T09:11:17;101218.13;;;9.55;61.29
76730;BME280;65653;53.106;18.046;2023-10-09T09:13:46;101216.80;;;9.54;61.18
76730;BME280;65653;53.106;18.046;2023-10-09T09:16:19;101216.05;;;9.53;61.34
76730;BME280;65653;53.106;18.046;2023-10-09T09:18:55;101218.01;;;9.55;61.12
76730;BME280;65653;53.106;18.046;2023-10-09T09:21:32;101218.15;;;9.58;61.09
76730;BME280;65653;53.106;18.046;2023-10-09T09:24:07;101214.86;;;9.67;61.56
76730;BME280;65653;53.106;18.046;2023-10-09T09:26:51;101214.74;;;9.71;60.69
76730;BME280;65653;53.106;18.046;2023-10-09T09:37:24;101201.02;;;9.98;60.58
76730;BME280;65653;53.106;18.046;2023-10-09T09:40:18;101195.86;;;10.19;60.62
76730;BME280;65653;53.106;18.046;2023-10-09T09:42:58;101198.58;;;10.27;59.40
76730;BME280;65653;53.106;18.046;2023-10-09T09:45:43;101198.73;;;10.44;59.82
76730;BME280;65653;53.106;18.046;2023-10-09T09:48:16;101198.05;;;10.54;59.01
76730;BME280;65653;53.106;18.046;2023-10-09T09:50:43;101202.63;;;10.58;58.63
76730;BME280;65653;53.106;18.046;2023-10-09T09:53:12;101195.85;;;10.75;58.77
76730;BME280;65653;53.106;18.046;2023-10-09T09:55:49;101197.94;;;10.88;58.11
76730;BME280;65653;53.106;18.046;2023-10-09T09:58:23;101202.27;;;10.93;58.08
76730;BME280;65653;53.106;18.046;2023-10-09T10:00:56;101201.98;;;10.92;58.06
76730;BME280;65653;53.106;18.046;2023-10-09T10:03:38;101194.58;;;10.97;58.10
76730;BME280;65653;53.106;18.046;2023-10-09T10:06:10;101192.88;;;11.10;57.71
76730;BME280;65653;53.106;18.046;2023-10-09T10:08:41;101199.85;;;11.35;57.34
76730;BME280;65653;53.106;18.046;2023-10-09T10:11:46;101200.74;;;11.49;56.23
76730;BME280;65653;53.106;18.046;2023-10-09T10:14:18;101192.71;;;11.79;56.34
76730;BME280;65653;53.106;18.046;2023-10-09T10:20:10;101186.98;;;12.38;55.33
76730;BME280;65653;53.106;18.046;2023-10-09T10:22:46;101182.85;;;12.62;55.13
76730;BME280;65653;53.106;18.046;2023-10-09T10:25:34;101177.88;;;13.03;54.60
76730;BME280;65653;53.106;18.046;2023-10-09T10:28:26;101170.95;;;13.44;52.28
76730;BME280;65653;53.106;18.046;2023-10-09T10:31:05;101167.33;;;13.68;52.41
76730;BME280;65653;53.106;18.046;2023-10-09T10:36:22;101162.73;;;13.71;51.97
76730;BME280;65653;53.106;18.046;2023-10-09T10:39:00;101168.31;;;13.69;51.43
76730;BME280;65653;53.106;18.046;2023-10-09T10:41:55;101172.04;;;13.70;51.86
76730;BME280;65653;53.106;18.046;2023-10-09T10:44:30;101171.06;;;13.61;50.96
76730;BME280;65653;53.106;18.046;2023-10-09T10:47:06;101164.98;;;13.57;51.51
76730;BME280;65653;53.106;18.046;2023-10-09T10:50:03;101166.29;;;13.59;50.83
76730;BME280;65653;53.106;18.046;2023-10-09T10:53:12;101157.36;;;13.73;49.65
76730;BME280;65653;53.106;18.046;2023-10-09T10:55:58;101149.13;;;14.01;49.25
76730;BME280;65653;53.106;18.046;2023-10-09T10:58:54;101149.52;;;14.91;48.80
76730;BME280;65653;53.106;18.046;2023-10-09T11:01:31;101148.91;;;15.90;46.44
76730;BME280;65653;53.106;18.046;2023-10-09T11:04:17;101147.18;;;16.07;45.99
76730;BME280;65653;53.106;18.046;2023-10-09T11:06:51;101144.16;;;15.92;46.56
76730;BME280;65653;53.106;18.046;2023-10-09T11:09:18;101141.61;;;16.02;46.31
76730;BME280;65653;53.106;18.046;2023-10-09T11:11:51;101134.60;;;16.77;44.18
76730;BME280;65653;53.106;18.046;2023-10-09T11:14:21;101124.93;;;17.62;42.43
76730;BME280;65653;53.106;18.046;2023-10-09T11:16:50;101127.66;;;18.41;41.73
76730;BME280;65653;53.106;18.046;2023-10-09T11:19:21;101122.97;;;19.39;40.27
76730;BME280;65653;53.106;18.046;2023-10-09T11:21:59;101117.16;;;19.83;38.07
76730;BME280;65653;53.106;18.046;2023-10-09T11:24:48;101121.23;;;21.40;35.28
76730;BME280;65653;53.106;18.046;2023-10-09T11:27:27;101120.32;;;21.22;36.74
76730;BME280;65653;53.106;18.046;2023-10-09T11:29:59;101118.64;;;20.45;38.17
76730;BME280;65653;53.106;18.046;2023-10-09T11:32:36;101127.68;;;19.58;38.49
76730;BME280;65653;53.106;18.046;2023-10-09T11:35:14;101126.78;;;18.83;38.99
76730;BME280;65653;53.106;18.046;2023-10-09T11:37:55;101117.64;;;18.09;39.96
76730;BME280;65653;53.106;18.046;2023-10-09T11:40:29;101119.27;;;17.63;40.67
76730;BME280;65653;53.106;18.046;2023-10-09T11:43:02;101129.42;;;17.17;41.30
76730;BME280;65653;53.106;18.046;2023-10-09T11:45:30;101131.09;;;16.44;41.75
76730;BME280;65653;53.106;18.046;2023-10-09T11:48:17;101134.32;;;15.88;42.92
76730;BME280;65653;53.106;18.046;2023-10-09T11:50:52;101130.68;;;15.76;43.72
76730;BME280;65653;53.106;18.046;2023-10-09T11:53:22;101123.29;;;15.90;43.22
76730;BME280;65653;53.106;18.046;2023-10-09T11:55:49;101119.70;;;16.29;42.97
76730;BME280;65653;53.106;18.046;2023-10-09T11:58:16;101116.89;;;17.03;42.10
76730;BME280;65653;53.106;18.046;2023-10-09T12:00:50;101110.86;;;18.02;41.17
76730;BME280;65653;53.106;18.046;2023-10-09T12:03:18;101111.30;;;20.00;37.98
76730;BME280;65653;53.106;18.046;2023-10-09T12:05:49;101108.35;;;22.29;33.27
76730;BME280;65653;53.106;18.046;2023-10-09T12:08:16;101099.30;;;22.32;32.83
76730;BME280;65653;53.106;18.046;2023-10-09T12:10:43;101101.23;;;21.06;33.82
76730;BME280;65653;53.106;18.046;2023-10-09T12:13:10;101099.06;;;19.86;35.66
76730;BME280;65653;53.106;18.046;2023-10-09T12:15:37;101098.34;;;19.56;37.52
76730;BME280;65653;53.106;18.046;2023-10-09T12:18:05;101092.84;;;19.67;37.04
76730;BME280;65653;53.106;18.046;2023-10-09T12:20:35;101089.52;;;21.66;34.66
76730;BME280;65653;53.106;18.046;2023-10-09T12:23:04;101093.42;;;23.50;31.23
76730;BME280;65653;53.106;18.046;2023-10-09T12:25:33;101085.16;;;24.03;30.39
76730;BME280;65653;53.106;18.046;2023-10-09T12:28:02;101083.77;;;25.18;28.98
76730;BME280;65653;53.106;18.046;2023-10-09T12:30:29;101073.83;;;25.97;27.18
76730;BME280;65653;53.106;18.046;2023-10-09T12:32:57;101067.22;;;24.97;27.93
76730;BME280;65653;53.106;18.046;2023-10-09T12:35:25;101072.00;;;23.27;30.31
76730;BME280;65653;53.106;18.046;2023-10-09T12:37:52;101060.67;;;24.94;28.75
76730;BME280;65653;53.106;18.046;2023-10-09T12:40:24;101053.04;;;26.46;26.56
76730;BME280;65653;53.106;18.046;2023-10-09T12:42:51;101051.11;;;26.82;25.89
76730;BME280;65653;53.106;18.046;2023-10-09T12:45:19;101048.52;;;26.81;26.38
76730;BME280;65653;53.106;18.046;2023-10-09T12:47:56;101044.13;;;27.92;25.54
76730;BME280;65653;53.106;18.046;2023-10-09T12:50:25;101035.51;;;28.55;23.82
76730;BME280;65653;53.106;18.046;2023-10-09T12:52:56;101028.61;;;29.06;23.40
76730;BME280;65653;53.106;18.046;2023-10-09T12:55:23;101021.65;;;27.83;23.67
76730;BME280;65653;53.106;18.046;2023-10-09T12:58:01;101018.81;;;25.15;27.09
76730;BME280;65653;53.106;18.046;2023-10-09T13:00:37;101015.25;;;25.45;27.19
76730;BME280;65653;53.106;18.046;2023-10-09T13:03:11;101017.61;;;23.39;28.76
76730;BME280;65653;53.106;18.046;2023-10-09T13:05:49;101021.80;;;21.18;31.24
76730;BME280;65653;53.106;18.046;2023-10-09T13:08:24;101018.61;;;20.02;32.88
76730;BME280;65653;53.106;18.046;2023-10-09T13:11:02;101015.29;;;19.38;34.30
76730;BME280;65653;53.106;18.046;2023-10-09T13:13:38;101016.04;;;20.82;32.80
76730;BME280;65653;53.106;18.046;2023-10-09T13:16:24;101020.41;;;20.37;33.35
76730;BME280;65653;53.106;18.046;2023-10-09T13:18:55;101014.02;;;21.65;31.97
76730;BME280;65653;53.106;18.046;2023-10-09T13:21:27;101001.22;;;23.77;28.96
76730;BME280;65653;53.106;18.046;2023-10-09T13:23:58;100999.72;;;24.12;27.12
76730;BME280;65653;53.106;18.046;2023-10-09T13:26:26;101011.66;;;21.89;29.98
76730;BME280;65653;53.106;18.046;2023-10-09T13:29:03;101012.30;;;20.97;31.56
76730;BME280;65653;53.106;18.046;2023-10-09T13:31:30;101005.69;;;21.91;30.59
76730;BME280;65653;53.106;18.046;2023-10-09T13:34:00;101000.36;;;23.44;29.08
76730;BME280;65653;53.106;18.046;2023-10-09T13:36:27;100999.05;;;25.07;27.82
76730;BME280;65653;53.106;18.046;2023-10-09T13:38:59;101002.14;;;26.54;26.37
76730;BME280;65653;53.106;18.046;2023-10-09T13:41:45;101010.77;;;26.90;24.55
76730;BME280;65653;53.106;18.046;2023-10-09T13:44:12;101009.17;;;26.55;25.47
76730;BME280;65653;53.106;18.046;2023-10-09T13:46:38;101007.06;;;25.91;26.13
76730;BME280;65653;53.106;18.046;2023-10-09T13:49:11;101012.05;;;26.71;25.08
76730;BME280;65653;53.106;18.046;2023-10-09T13:51:43;101001.66;;;26.65;24.33
76730;BME280;65653;53.106;18.046;2023-10-09T13:54:13;100998.72;;;25.32;25.81